Time;durP1;ratioP1;P1;durP2;ratioP2;P2;SDS_P1;SDS_P2;PMS_P1;PMS_P2;Temp;Humidity;BMP_temperature;BMP_pressure;BME280_temperature;BME280_humidity;BME280_pressure;Samples;Min_cycle;Max_cycle;Signal;HPM_P1;HPM_P2
2024/03/09 00:02:08;;;;;;;31.63;9.90;;;;;;;3.94;100.00;100773.78;6278637;28;20059;-75
2024/03/09 00:05:09;;;;;;;19.73;8.82;;;;;;;3.90;100.00;100761.75;6278339;28;20441;-75
2024/03/09 00:08:11;;;;;;;22.90;10.15;;;;;;;3.87;100.00;100760.13;6278536;28;20049;-75
2024/03/09 00:11:14;;;;;;;23.50;9.48;;;;;;;3.87;100.00;100760.13;6278211;28;20133;-75
2024/03/09 00:14:16;;;;;;;24.85;10.57;;;;;;;3.81;100.00;100753.34;6278129;28;20048;-75
2024/03/09 00:17:17;;;;;;;30.63;11.07;;;;;;;3.85;100.00;100750.63;6278592;28;20056;-76
2024/03/09 00:20:21;;;;;;;24.30;10.10;;;;;;;3.89;100.00;100741.88;6276989;28;20071;-75
2024/03/09 00:23:26;;;;;;;29.33;10.20;;;;;;;3.88;100.00;100753.16;6278225;28;20130;-75
2024/03/09 00:26:29;;;;;;;23.98;9.32;;;;;;;3.85;100.00;100753.25;6277752;28;20051;-76
2024/03/09 00:29:33;;;;;;;28.70;9.55;;;;;;;3.77;100.00;100754.31;6277580;28;20048;-75
2024/03/09 00:32:34;;;;;;;28.20;10.38;;;;;;;3.73;100.00;100757.88;6278212;28;20055;-76
2024/03/09 00:35:36;;;;;;;28.38;10.38;;;;;;;3.65;100.00;100754.59;6277505;28;20060;-75
2024/03/09 00:38:41;;;;;;;30.65;11.40;;;;;;;3.67;100.00;100746.75;6272119;28;20056;-75
2024/03/09 00:41:47;;;;;;;25.17;9.60;;;;;;;3.74;100.00;100749.16;6253121;28;20052;-75
2024/03/09 00:44:48;;;;;;;26.05;10.02;;;;;;;3.73;100.00;100749.22;6252962;28;20056;-76
2024/03/09 00:47:50;;;;;;;22.83;10.48;;;;;;;3.73;100.00;100744.88;6261345;28;20461;-75
2024/03/09 00:50:53;;;;;;;29.25;10.80;;;;;;;3.67;100.00;100746.75;6253021;28;20038;-76
2024/03/09 00:53:54;;;;;;;32.95;11.60;;;;;;;3.70;100.00;100741.50;6253112;28;20052;-75
2024/03/09 00:56:57;;;;;;;28.92;11.70;;;;;;;3.71;100.00;100733.66;6253909;28;20057;-74
2024/03/09 01:00:00;;;;;;;25.35;10.80;;;;;;;3.72;100.00;100730.16;6252230;28;20132;-77
2024/03/09 01:03:02;;;;;;;33.47;12.00;;;;;;;3.65;100.00;100732.97;6252398;28;20077;-76
2024/03/09 01:06:05;;;;;;;26.77;11.57;;;;;;;3.47;100.00;100729.91;6260596;28;20052;-76
2024/03/09 01:09:06;;;;;;;28.30;11.68;;;;;;;3.56;100.00;100724.50;6260075;28;20342;-76
2024/03/09 01:12:09;;;;;;;33.70;13.35;;;;;;;3.59;100.00;100726.19;6252381;28;20338;-75
2024/03/09 01:15:11;;;;;;;29.77;11.07;;;;;;;3.55;100.00;100716.75;6251952;28;20049;-75
2024/03/09 01:18:14;;;;;;;30.05;11.85;;;;;;;3.60;100.00;100706.25;6252244;28;20349;-76
2024/03/09 01:21:15;;;;;;;24.80;10.60;;;;;;;3.58;100.00;100703.66;6251549;28;20358;-75
2024/03/09 01:24:17;;;;;;;31.73;12.68;;;;;;;3.55;100.00;100699.41;6251654;28;20050;-76
2024/03/09 01:27:19;;;;;;;30.20;12.30;;;;;;;3.53;100.00;100692.53;6252141;28;20071;-75
2024/03/09 01:30:21;;;;;;;32.60;12.57;;;;;;;3.41;100.00;100691.13;6251721;28;20061;-77
2024/03/09 01:33:22;;;;;;;32.25;13.13;;;;;;;3.43;100.00;100688.47;6263573;28;20045;-77
2024/03/09 01:36:25;;;;;;;37.80;12.35;;;;;;;3.49;100.00;100691.75;6276212;28;20361;-75
2024/03/09 01:39:26;;;;;;;40.63;13.93;;;;;;;3.47;100.00;100684.91;6276123;28;20460;-75
2024/03/09 01:42:29;;;;;;;34.92;12.70;;;;;;;3.49;100.00;100688.31;6255817;28;20038;-76
2024/03/09 01:45:30;;;;;;;33.40;12.85;;;;;;;3.36;100.00;100685.19;6251248;28;20046;-76
2024/03/09 01:48:32;;;;;;;32.13;11.10;;;;;;;3.37;100.00;100683.44;6251509;28;20041;-75
2024/03/09 01:51:35;;;;;;;36.38;12.88;;;;;;;3.34;100.00;100678.31;6259291;28;20064;-76
2024/03/09 01:54:39;;;;;;;29.00;12.15;;;;;;;3.36;100.00;100676.50;6251020;28;20120;-75
2024/03/09 01:57:42;;;;;;;26.33;11.95;;;;;;;3.34;100.00;100680.91;6251476;28;20587;-75
2024/03/09 02:00:44;;;;;;;42.55;13.38;;;;;;;3.32;100.00;100662.78;6250798;28;20049;-77
2024/03/09 02:03:46;;;;;;;32.20;14.13;;;;;;;3.28;100.00;100655.94;6257581;28;20048;-77
2024/03/09 02:06:47;;;;;;;30.58;12.63;;;;;;;3.26;100.00;100653.38;6252340;28;20052;-76
2024/03/09 02:09:49;;;;;;;30.65;12.40;;;;;;;3.26;100.00;100647.31;6250570;28;20053;-76
2024/03/09 02:12:52;;;;;;;33.97;12.57;;;;;;;3.25;100.00;100638.69;6259067;28;20358;-75
2024/03/09 02:15:54;;;;;;;35.35;14.40;;;;;;;3.22;100.00;100635.31;6250471;28;20041;-74
2024/03/09 02:18:57;;;;;;;39.17;13.07;;;;;;;3.27;100.00;100633.44;6258252;28;20045;-75
2024/03/09 02:21:58;;;;;;;34.70;12.75;;;;;;;3.24;100.00;100624.00;6250962;28;20056;-76
2024/03/09 02:25:02;;;;;;;36.80;14.55;;;;;;;3.26;100.00;100621.34;6250385;28;20057;-76
2024/03/09 02:28:03;;;;;;;28.33;13.23;;;;;;;3.14;100.00;100621.69;6250556;28;20060;-76
2024/03/09 02:31:06;;;;;;;36.60;13.52;;;;;;;3.16;100.00;100619.88;6250213;28;20354;-76
2024/03/09 02:34:07;;;;;;;32.25;12.88;;;;;;;3.12;100.00;100616.50;6250399;28;20327;-75
2024/03/09 02:37:08;;;;;;;34.63;14.10;;;;;;;3.14;100.00;100604.34;6267676;28;20437;-76
2024/03/09 02:40:12;;;;;;;31.83;13.85;;;;;;;3.13;100.00;100602.63;6274548;28;20063;-74
2024/03/09 02:43:13;;;;;;;33.05;12.88;;;;;;;3.09;100.00;100598.44;6274765;28;20108;-75
2024/03/09 02:46:16;;;;;;;34.85;12.98;;;;;;;3.10;100.00;100589.75;6274723;28;20041;-75
2024/03/09 02:49:18;;;;;;;41.13;15.48;;;;;;;2.97;100.00;100589.19;6274506;28;20059;-76
2024/03/09 02:52:20;;;;;;;36.60;14.48;;;;;;;2.93;100.00;100587.56;6275246;28;20052;-76
2024/03/09 02:55:24;;;;;;;31.00;13.45;;;;;;;2.98;100.00;100583.09;6274481;28;20120;-76
2024/03/09 02:58:26;;;;;;;37.97;13.38;;;;;;;2.87;100.00;100585.13;6275024;28;20171;-75
2024/03/09 03:01:27;;;;;;;35.88;13.65;;;;;;;2.95;100.00;100583.19;6274441;28;20344;-76
2024/03/09 03:04:29;;;;;;;37.05;14.40;;;;;;;2.93;100.00;100574.59;6270799;28;20165;-76
2024/03/09 03:07:30;;;;;;;37.78;14.35;;;;;;;2.92;100.00;100572.03;6250416;28;20050;-76
2024/03/09 03:10:33;;;;;;;38.22;15.45;;;;;;;2.96;100.00;100569.31;6253946;28;20049;-76
2024/03/09 03:13:34;;;;;;;39.08;14.35;;;;;;;2.81;100.00;100564.50;6274642;28;20060;-76
2024/03/09 03:16:36;;;;;;;41.92;15.60;;;;;;;2.77;100.00;100570.63;6274272;28;20063;-76
2024/03/09 03:19:37;;;;;;;41.13;15.18;;;;;;;2.77;100.00;100566.34;6274131;28;20451;-74
2024/03/09 03:22:38;;;;;;;47.63;15.88;;;;;;;2.71;100.00;100563.88;6271918;28;20052;-75
2024/03/09 03:25:41;;;;;;;41.75;15.23;;;;;;;2.72;100.00;100567.31;6274119;28;20048;-76
2024/03/09 03:28:44;;;;;;;39.50;14.43;;;;;;;2.74;100.00;100566.41;6273990;28;20044;-76
2024/03/09 03:31:46;;;;;;;44.55;15.70;;;;;;;2.66;100.00;100565.72;6268143;28;20353;-76
2024/03/09 03:34:49;;;;;;;41.67;16.05;;;;;;;2.62;100.00;100560.63;6259249;28;20049;-74
2024/03/09 03:37:50;;;;;;;39.90;15.73;;;;;;;2.73;100.00;100564.69;6256675;28;20055;-76
2024/03/09 03:40:53;;;;;;;37.40;13.90;;;;;;;2.66;100.00;100564.88;6250641;28;20049;-76
2024/03/09 03:43:54;;;;;;;42.53;14.85;;;;;;;2.56;100.00;100564.25;6249525;28;20061;-75
2024/03/09 03:46:55;;;;;;;41.38;14.95;;;;;;;2.57;100.00;100559.91;6273041;28;20075;-76
2024/03/09 03:49:57;;;;;;;39.45;14.73;;;;;;;2.59;100.00;100563.31;6273665;28;20053;-75
2024/03/09 03:52:58;;;;;;;37.05;14.50;;;;;;;2.55;100.00;100562.53;6274270;28;20049;-76
2024/03/09 03:56:01;;;;;;;42.38;15.00;;;;;;;2.31;100.00;100568.28;6275971;28;20060;-75
2024/03/09 03:59:03;;;;;;;46.70;14.40;;;;;;;2.34;100.00;100558.69;6261931;28;20053;-75
2024/03/09 04:02:06;;;;;;;39.35;14.85;;;;;;;2.42;100.00;100553.34;6253957;28;20049;-75
2024/03/09 04:05:08;;;;;;;32.00;14.35;;;;;;;2.38;100.00;100559.47;6253777;28;20041;-75
2024/03/09 04:08:10;;;;;;;42.90;15.32;;;;;;;2.41;100.00;100549.91;6253832;28;20054;-76
2024/03/09 04:11:14;;;;;;;45.25;16.95;;;;;;;2.31;100.00;100561.34;6253458;28;20057;-76
2024/03/09 04:14:16;;;;;;;35.22;15.35;;;;;;;2.33;100.00;100550.94;6257776;28;20042;-75
2024/03/09 04:17:18;;;;;;;43.15;15.48;;;;;;;2.36;100.00;100546.53;6257360;28;20103;-75
2024/03/09 04:20:19;;;;;;;38.65;15.77;;;;;;;2.34;100.00;100544.88;6259025;28;20476;-74
2024/03/09 04:23:22;;;;;;;52.45;15.27;;;;;;;2.39;100.00;100535.25;6253514;28;20072;-76
2024/03/09 04:26:26;;;;;;;44.22;14.98;;;;;;;2.33;100.00;100533.66;6252956;28;20064;-75
2024/03/09 04:29:28;;;;;;;43.25;15.82;;;;;;;2.26;100.00;100538.09;6252956;28;20128;-76
2024/03/09 04:32:30;;;;;;;52.13;15.68;;;;;;;2.21;100.00;100542.53;6253787;28;20057;-75
2024/03/09 04:35:33;;;;;;;40.13;14.90;;;;;;;2.23;100.00;100532.16;6252872;28;20037;-76
2024/03/09 04:38:35;;;;;;;42.67;15.52;;;;;;;2.21;100.00;100531.31;6253252;28;20430;-76
2024/03/09 04:41:38;;;;;;;46.22;17.17;;;;;;;2.17;100.00;100527.09;6252917;28;20041;-77
2024/03/09 04:44:41;;;;;;;38.10;15.52;;;;;;;2.24;100.00;100520.91;6252871;28;20048;-74
2024/03/09 04:47:42;;;;;;;38.67;15.82;;;;;;;2.23;100.00;100519.19;6252967;28;20041;-76
2024/03/09 04:50:46;;;;;;;45.50;16.55;;;;;;;2.26;100.00;100525.16;6260977;28;20124;-76
2024/03/09 04:53:47;;;;;;;49.70;16.20;;;;;;;2.18;100.00;100527.09;6252831;28;20050;-75
2024/03/09 04:56:50;;;;;;;42.78;16.65;;;;;;;2.16;100.00;100526.25;6252911;28;20053;-76
2024/03/09 04:59:51;;;;;;;41.13;14.98;;;;;;;2.17;100.00;100514.97;6252326;28;20041;-75
2024/03/09 05:02:53;;;;;;;39.85;15.77;;;;;;;2.14;100.00;100509.03;6252541;28;20048;-75
2024/03/09 05:05:55;;;;;;;37.70;16.00;;;;;;;2.13;100.00;100518.53;6251859;28;20049;-75
2024/03/09 05:08:57;;;;;;;39.75;16.92;;;;;;;2.13;100.00;100515.09;6251888;28;20045;-75
2024/03/09 05:11:59;;;;;;;44.25;15.70;;;;;;;2.19;100.00;100510.63;6252577;28;20059;-75
2024/03/09 05:15:02;;;;;;;40.08;15.80;;;;;;;2.17;100.00;100512.41;6252027;28;20046;-75
2024/03/09 05:18:07;;;;;;;42.28;16.70;;;;;;;2.07;100.00;100516.09;6252412;28;20059;-75
2024/03/09 05:21:08;;;;;;;43.55;17.23;;;;;;;2.12;100.00;100503.03;6251705;28;20060;-75
2024/03/09 05:24:10;;;;;;;35.13;14.85;;;;;;;2.16;100.00;100504.66;6251973;28;20057;-74
2024/03/09 05:27:12;;;;;;;42.47;15.13;;;;;;;2.15;100.00;100498.63;6252048;28;20365;-75
2024/03/09 05:30:16;;;;;;;52.75;17.05;;;;;;;2.08;100.00;100501.38;6251971;28;20045;-76
2024/03/09 05:33:17;;;;;;;38.65;16.00;;;;;;;2.02;100.00;100492.88;6251859;28;20346;-75
2024/03/09 05:36:19;;;;;;;42.20;16.50;;;;;;;1.97;100.00;100499.88;6251818;28;20041;-75
2024/03/09 05:39:20;;;;;;;44.25;15.18;;;;;;;2.06;100.00;100498.00;6251306;28;20053;-75
2024/03/09 05:42:23;;;;;;;34.35;15.73;;;;;;;2.04;100.00;100500.59;6251679;28;20057;-76
2024/03/09 05:45:24;;;;;;;44.47;15.90;;;;;;;2.03;100.00;100504.94;6251438;28;20049;-75
2024/03/09 05:48:26;;;;;;;45.78;16.63;;;;;;;2.01;100.00;100496.34;6251484;28;20457;-76
2024/03/09 05:51:27;;;;;;;41.35;16.05;;;;;;;1.92;100.00;100503.47;6251240;28;20053;-77
2024/03/09 05:54:31;;;;;;;47.70;16.80;;;;;;;1.99;100.00;100492.91;6251407;28;20342;-75
2024/03/09 05:57:34;;;;;;;41.28;15.90;;;;;;;1.92;100.00;100493.97;6251380;28;20410;-76
2024/03/09 06:00:36;;;;;;;42.88;16.00;;;;;;;1.87;100.00;100494.97;6274368;28;20127;-76
2024/03/09 06:03:41;;;;;;;37.03;14.77;;;;;;;1.85;100.00;100497.56;6263375;28;20041;-77
2024/03/09 06:06:43;;;;;;;44.75;15.70;;;;;;;1.82;100.00;100496.75;6271025;28;20067;-75
2024/03/09 06:09:46;;;;;;;56.08;17.02;;;;;;;1.83;100.00;100494.16;6263808;28;20049;-75
2024/03/09 06:12:51;;;;;;;36.65;15.18;;;;;;;1.82;100.00;100497.66;6275899;28;20041;-76
2024/03/09 06:15:55;;;;;;;48.10;17.15;;;;;;;1.71;100.00;100494.41;6275314;28;20041;-76
2024/03/09 06:18:57;;;;;;;45.63;15.45;;;;;;;1.87;100.00;100500.13;6274517;28;20107;-75
2024/03/09 06:21:59;;;;;;;44.20;17.77;;;;;;;1.80;100.00;100496.81;6275439;28;20361;-75
2024/03/09 06:25:00;;;;;;;39.75;16.98;;;;;;;1.89;100.00;100503.53;6274828;28;20045;-75
2024/03/09 06:28:07;;;;;;;43.75;16.02;;;;;;;1.90;100.00;100495.72;6251136;28;20056;-75
2024/03/09 06:31:09;;;;;;;35.33;15.18;;;;;;;1.94;100.00;100502.53;6250310;28;20052;-75
2024/03/09 06:34:11;;;;;;;47.25;16.38;;;;;;;2.03;100.00;100504.06;6250264;28;20142;-74
2024/03/09 06:37:12;;;;;;;46.42;17.05;;;;;;;2.02;100.00;100504.97;6250429;28;20345;-74
2024/03/09 06:40:13;;;;;;;55.30;17.27;;;;;;;1.89;100.00;100508.72;6257907;28;20052;-76
2024/03/09 06:43:17;;;;;;;40.50;15.82;;;;;;;1.99;100.00;100507.63;6250576;28;20050;-75
2024/03/09 06:46:18;;;;;;;39.38;15.15;;;;;;;2.05;100.00;100511.84;6249980;28;20046;-75
2024/03/09 06:49:21;;;;;;;50.80;18.63;;;;;;;2.11;100.00;100507.34;6249874;28;20053;-75
2024/03/09 06:52:22;;;;;;;49.88;16.40;;;;;;;2.17;100.00;100501.19;6250456;28;20064;-76
2024/03/09 06:55:25;;;;;;;49.28;16.70;;;;;;;2.23;100.00;100488.94;6250269;28;20056;-75
2024/03/09 06:58:28;;;;;;;40.83;15.85;;;;;;;2.26;100.00;100490.59;6250487;28;20481;-75
2024/03/09 07:01:31;;;;;;;38.65;15.20;;;;;;;2.20;100.00;100496.78;6249731;28;20052;-75
2024/03/09 07:04:32;;;;;;;34.65;14.48;;;;;;;2.15;100.00;100496.03;6262350;28;20045;-73
2024/03/09 07:07:34;;;;;;;41.42;15.05;;;;;;;2.19;100.00;100494.22;6250003;28;20377;-70
2024/03/09 07:10:35;;;;;;;45.85;16.15;;;;;;;2.27;100.00;100493.16;6249617;28;20052;-72
2024/03/09 07:13:41;;;;;;;46.65;17.00;;;;;;;2.39;100.00;100497.19;6252653;28;20457;-72
2024/03/09 07:16:42;;;;;;;38.78;15.52;;;;;;;2.42;100.00;100494.53;6250072;28;20460;-72
2024/03/09 07:19:45;;;;;;;36.75;14.50;;;;;;;2.54;100.00;100490.78;6249475;28;20041;-72
2024/03/09 07:22:49;;;;;;;49.15;16.40;;;;;;;2.57;100.00;100482.09;6249835;28;20457;-72
2024/03/09 07:25:51;;;;;;;42.22;16.17;;;;;;;2.58;100.00;100487.22;6264041;28;20430;-72
2024/03/09 07:28:54;;;;;;;39.63;14.60;;;;;;;2.61;100.00;100492.34;6255088;28;20052;-72
2024/03/09 07:31:56;;;;;;;43.08;16.15;;;;;;;2.72;100.00;100486.88;6254936;28;20465;-71
2024/03/09 07:34:57;;;;;;;34.92;14.63;;;;;;;2.77;100.00;100487.59;6266521;28;20052;-71
2024/03/09 07:37:59;;;;;;;43.33;16.50;;;;;;;2.73;100.00;100479.09;6255829;28;20104;-71
2024/03/09 07:41:00;;;;;;;40.33;16.05;;;;;;;2.82;100.00;100470.22;6262352;28;20398;-71
2024/03/09 07:44:03;;;;;;;37.88;15.40;;;;;;;2.94;100.00;100469.00;6255265;28;20064;-70
2024/03/09 07:47:05;;;;;;;37.70;15.65;;;;;;;3.00;100.00;100476.66;6254085;28;20353;-70
2024/03/09 07:50:13;;;;;;;42.35;14.57;;;;;;;3.08;100.00;100481.63;6272219;28;20049;-73
2024/03/09 07:53:15;;;;;;;35.35;15.27;;;;;;;3.14;100.00;100474.53;6263785;28;20103;-70
2024/03/09 07:56:18;;;;;;;40.00;14.65;;;;;;;3.16;100.00;100462.34;6278755;28;20041;-70
2024/03/09 07:59:20;;;;;;;40.80;14.93;;;;;;;3.27;100.00;100464.66;6278493;28;20057;-73
2024/03/09 08:02:23;;;;;;;41.75;16.48;;;;;;;3.16;100.00;100470.16;6277251;28;20076;-70
2024/03/09 08:05:28;;;;;;;37.75;15.18;;;;;;;3.27;100.00;100462.03;6261962;28;20045;-71
2024/03/09 08:08:30;;;;;;;40.00;14.05;;;;;;;3.45;100.00;100469.34;6268301;28;20060;-70
2024/03/09 08:11:31;;;;;;;33.88;14.25;;;;;;;3.53;100.00;100463.91;6269838;28;20041;-71
2024/03/09 08:14:34;;;;;;;35.83;14.48;;;;;;;3.63;100.00;100454.09;6267735;28;20411;-71
2024/03/09 08:17:35;;;;;;;37.67;14.00;;;;;;;3.65;100.00;100452.31;6271728;28;20048;-71
2024/03/09 08:20:38;;;;;;;39.60;14.68;;;;;;;3.61;100.00;100448.13;6253194;28;20037;-71
2024/03/09 08:23:42;;;;;;;39.00;13.63;;;;;;;3.78;100.00;100444.13;6253833;28;20047;-71
2024/03/09 08:26:45;;;;;;;39.95;13.40;;;;;;;3.96;100.00;100444.47;6253154;28;20495;-71
2024/03/09 08:29:49;;;;;;;29.92;12.57;;;;;;;4.05;100.00;100451.97;6253230;28;20087;-71
2024/03/09 08:32:53;;;;;;;36.13;13.93;;;;;;;4.13;100.00;100449.09;6253191;28;20369;-71
2024/03/09 08:35:58;;;;;;;35.38;14.23;;;;;;;4.04;100.00;100435.53;6253258;28;20053;-71
2024/03/09 08:38:59;;;;;;;35.83;13.85;;;;;;;4.19;100.00;100425.53;6264449;28;20616;-71
2024/03/09 08:42:01;;;;;;;40.15;15.30;;;;;;;4.23;100.00;100434.94;6277324;28;20060;-76
2024/03/09 08:45:08;;;;;;;34.38;13.68;;;;;;;4.32;100.00;100432.03;6277410;28;20146;-76
2024/03/09 08:48:12;;;;;;;34.88;14.27;;;;;;;4.49;100.00;100434.06;6277742;28;20427;-76
2024/03/09 08:51:13;;;;;;;39.83;14.38;;;;;;;4.54;100.00;100426.94;6277278;28;20091;-76
2024/03/09 08:54:14;;;;;;;35.03;13.55;;;;;;;4.59;100.00;100427.66;6277169;28;20048;-75
2024/03/09 08:57:19;;;;;;;29.35;12.75;;;;;;;4.72;100.00;100428.91;6277737;28;20045;-75
2024/03/09 09:00:24;;;;;;;35.97;13.68;;;;;;;4.77;100.00;100421.84;6276944;28;20045;-76
2024/03/09 09:03:25;;;;;;;34.10;13.10;;;;;;;4.92;100.00;100417.84;6277435;28;20052;-76
2024/03/09 09:06:27;;;;;;;33.17;14.45;;;;;;;4.95;100.00;100407.31;6276870;28;20068;-75
2024/03/09 09:09:28;;;;;;;34.75;12.93;;;;;;;5.07;100.00;100406.84;6276978;28;20464;-76
2024/03/09 09:12:29;;;;;;;36.25;14.00;;;;;;;5.21;100.00;100405.50;6277222;28;20041;-75
2024/03/09 09:15:33;;;;;;;30.70;12.40;;;;;;;5.08;100.00;100395.53;6277134;28;20052;-74
2024/03/09 09:18:34;;;;;;;31.13;12.45;;;;;;;5.15;100.00;100398.78;6276828;28;20049;-76
2024/03/09 09:21:35;;;;;;;27.15;11.60;;;;;;;5.19;100.00;100394.31;6276699;28;20052;-77
2024/03/09 09:24:37;;;;;;;30.45;12.70;;;;;;;5.24;100.00;100392.38;6276434;28;20052;-77
2024/03/09 09:27:39;;;;;;;26.85;11.45;;;;;;;5.41;100.00;100399.56;6275429;28;20045;-77
2024/03/09 09:30:44;;;;;;;32.30;12.32;;;;;;;5.50;100.00;100392.25;6266836;28;20044;-75
2024/03/09 09:33:45;;;;;;;30.80;12.95;;;;;;;5.56;100.00;100385.97;6267433;28;20375;-79
2024/03/09 09:36:48;;;;;;;29.75;12.27;;;;;;;5.64;100.00;100389.13;6270106;28;20349;-77
2024/03/09 09:39:51;;;;;;;31.33;12.45;;;;;;;5.73;100.00;100383.53;6271592;28;20056;-71
2024/03/09 09:42:52;;;;;;;38.13;13.38;;;;;;;5.80;100.00;100379.78;6261475;28;20045;-77
2024/03/09 09:45:57;;;;;;;27.42;12.57;;;;;;;5.90;100.00;100382.00;6251053;28;20136;-76
2024/03/09 09:49:01;;;;;;;30.73;11.88;;;;;;;5.95;100.00;100370.53;6250451;28;20465;-76
2024/03/09 09:52:04;;;;;;;30.98;12.13;;;;;;;6.02;100.00;100374.59;6251380;28;20045;-76
2024/03/09 09:55:06;;;;;;;29.33;11.95;;;;;;;6.16;100.00;100373.19;6251314;28;20053;-77
2024/03/09 09:58:07;;;;;;;31.23;12.13;;;;;;;6.27;100.00;100368.38;6251315;28;20433;-76
2024/03/09 10:01:10;;;;;;;27.40;11.30;;;;;;;6.38;100.00;100365.31;6251153;28;20069;-76
2024/03/09 10:04:11;;;;;;;22.85;10.63;;;;;;;6.37;100.00;100364.47;6251036;28;20164;-76
2024/03/09 10:07:14;;;;;;;28.10;12.02;;;;;;;6.49;100.00;100366.53;6250955;28;20366;-76
2024/03/09 10:10:16;;;;;;;25.80;10.30;;;;;;;6.50;100.00;100363.03;6251648;28;20049;-76
2024/03/09 10:13:18;;;;;;;29.25;11.95;;;;;;;6.56;100.00;100360.16;6258083;28;20132;-76
2024/03/09 10:16:28;;;;;;;25.58;10.85;;;;;;;6.65;100.00;100358.91;6250835;28;20045;-76
2024/03/09 10:19:30;;;;;;;28.02;12.85;;;;;;;6.70;100.00;100362.16;6250475;28;20046;-77
2024/03/09 10:22:34;;;;;;;24.60;10.55;;;;;;;6.79;100.00;100358.31;6250996;28;20049;-76
2024/03/09 10:25:37;;;;;;;27.20;11.43;;;;;;;6.83;100.00;100352.03;6250198;28;20446;-76
2024/03/09 10:28:39;;;;;;;23.48;10.80;;;;;;;6.86;100.00;100346.69;6250481;28;20053;-76
2024/03/09 10:31:43;;;;;;;26.67;10.93;;;;;;;7.03;100.00;100353.75;6250659;28;20052;-77
2024/03/09 10:34:44;;;;;;;24.92;10.20;;;;;;;7.10;100.00;100350.78;6250695;28;20059;-76
2024/03/09 10:37:50;;;;;;;29.95;12.07;;;;;;;7.17;100.00;100343.50;6250578;28;20045;-76
2024/03/09 10:40:57;;;;;;;29.83;11.52;;;;;;;7.28;100.00;100337.81;6250298;28;20107;-77
2024/03/09 10:44:01;;;;;;;25.42;10.70;;;;;;;7.48;100.00;100345.56;6250531;28;20050;-76
2024/03/09 10:47:09;;;;;;;26.85;10.38;;;;;;;7.53;100.00;100340.97;6251281;28;20052;-76
2024/03/09 10:50:17;;;;;;;26.83;9.95;;;;;;;7.58;100.00;100351.19;6249991;28;20199;-76
2024/03/09 10:53:27;;;;;;;29.55;12.20;;;;;;;7.61;100.00;100346.69;6250889;28;20064;-76
2024/03/09 10:56:31;;;;;;;24.77;10.75;;;;;;;7.65;100.00;100338.69;6250226;28;20599;-76
2024/03/09 10:59:32;;;;;;;28.25;11.73;;;;;;;7.67;100.00;100331.59;6249976;28;20075;-77
2024/03/09 11:02:38;;;;;;;24.50;10.48;;;;;;;7.74;100.00;100327.78;6250148;28;20041;-77
2024/03/09 11:05:39;;;;;;;30.42;11.48;;;;;;;7.88;100.00;100326.19;6256814;28;20048;-76
2024/03/09 11:08:43;;;;;;;29.50;11.05;;;;;;;8.05;100.00;100327.16;6257797;28;20045;-76
2024/03/09 11:11:46;;;;;;;31.20;10.90;;;;;;;8.13;100.00;100325.00;6258418;28;20167;-76
2024/03/09 11:14:52;;;;;;;27.77;11.25;;;;;;;8.22;100.00;100321.91;6258035;28;20450;-75
2024/03/09 11:17:58;;;;;;;26.25;11.00;;;;;;;8.31;99.02;100324.06;6258093;28;20044;-76
2024/03/09 11:21:00;;;;;;;26.30;11.00;;;;;;;8.37;97.33;100308.06;6273121;28;20444;-77
2024/03/09 11:24:07;;;;;;;26.17;11.77;;;;;;;8.52;99.55;100288.09;6259208;28;20060;-76
2024/03/09 11:27:08;;;;;;;25.20;10.48;;;;;;;8.74;96.57;100300.06;6257976;28;20041;-76
2024/03/09 11:30:13;;;;;;;26.23;10.82;;;;;;;8.95;95.93;100292.81;6257613;28;20056;-77
2024/03/09 11:33:16;;;;;;;24.40;10.70;;;;;;;9.04;92.90;100285.34;6258205;28;20118;-76
2024/03/09 11:36:37;;;;;;;23.58;10.45;;;;;;;9.14;91.43;100291.75;6257598;28;20350;-76
2024/03/09 11:39:39;;;;;;;23.60;10.55;;;;;;;9.28;93.77;100279.66;6257522;28;20334;-77
2024/03/09 11:42:41;;;;;;;28.88;11.45;;;;;;;9.22;93.08;100282.59;6257647;28;20183;-78
2024/03/09 11:45:45;;;;;;;25.13;11.07;;;;;;;9.44;90.37;100277.03;6257710;28;20041;-76
2024/03/09 11:48:48;;;;;;;29.58;11.45;;;;;;;9.54;92.57;100265.94;6257355;28;20049;-77
2024/03/09 11:51:50;;;;;;;27.88;10.30;;;;;;;9.53;89.17;100260.75;6258111;28;20335;-77
2024/03/09 11:54:52;;;;;;;20.05;9.80;;;;;;;9.75;87.52;100260.38;6257473;28;20052;-76
2024/03/09 11:57:53;;;;;;;23.88;9.95;;;;;;;9.83;86.11;100264.25;6257822;28;20056;-78
2024/03/09 12:00:56;;;;;;;27.05;11.00;;;;;;;9.93;83.93;100267.19;6257295;28;20053;-76
2024/03/09 12:03:59;;;;;;;21.38;10.45;;;;;;;10.08;82.10;100242.69;6257960;28;20457;-77
2024/03/09 12:07:01;;;;;;;21.45;10.23;;;;;;;10.18;81.14;100240.34;6257379;28;20462;-77
2024/03/09 12:10:03;;;;;;;24.17;10.43;;;;;;;10.41;83.75;100245.09;6257256;28;20076;-77
2024/03/09 12:13:06;;;;;;;21.80;9.77;;;;;;;10.54;81.35;100234.69;6257782;28;20073;-76
2024/03/09 12:16:08;;;;;;;22.27;11.20;;;;;;;10.40;80.09;100230.28;6254484;28;20060;-78
2024/03/09 12:19:12;;;;;;;26.92;10.32;;;;;;;10.56;82.40;100224.06;6253479;28;20055;-76
2024/03/09 12:22:14;;;;;;;24.10;10.55;;;;;;;10.70;77.88;100225.84;6253780;28;20155;-78
2024/03/09 12:25:15;;;;;;;21.08;10.43;;;;;;;10.86;81.23;100226.59;6253398;28;20460;-79
2024/03/09 12:28:17;;;;;;;20.90;10.20;;;;;;;11.05;78.29;100226.25;6253270;28;20045;-77
2024/03/09 12:31:18;;;;;;;25.95;11.02;;;;;;;11.15;77.88;100236.09;6253154;28;20060;-78
2024/03/09 12:34:22;;;;;;;18.17;9.32;;;;;;;11.17;76.32;100238.59;6253072;28;20454;-77
2024/03/09 12:37:26;;;;;;;20.33;9.48;;;;;;;11.34;74.92;100227.00;6253277;28;20341;-77
2024/03/09 12:40:28;;;;;;;20.52;9.52;;;;;;;11.25;76.12;100225.81;6252826;28;20130;-79
2024/03/09 12:43:30;;;;;;;22.02;9.65;;;;;;;11.09;76.71;100227.75;6253453;28;20072;-79
2024/03/09 12:46:32;;;;;;;20.27;9.50;;;;;;;11.14;75.74;100229.16;6252773;28;20049;-79
2024/03/09 12:49:36;;;;;;;22.30;10.02;;;;;;;10.99;74.55;100226.63;6252481;28;20045;-77
2024/03/09 12:52:38;;;;;;;21.60;10.60;;;;;;;11.14;75.69;100233.56;6252862;28;20128;-79
2024/03/09 12:55:43;;;;;;;25.40;10.45;;;;;;;11.27;74.30;100228.38;6252499;28;20046;-79
2024/03/09 12:58:47;;;;;;;23.10;9.82;;;;;;;11.30;75.59;100238.66;6252443;28;20045;-78
2024/03/09 13:01:50;;;;;;;17.13;9.25;;;;;;;11.48;73.13;100236.63;6252665;28;20049;-76
2024/03/09 13:04:53;;;;;;;24.30;9.65;;;;;;;11.50;72.17;100227.72;6252705;28;20441;-79
2024/03/09 13:07:56;;;;;;;24.23;10.30;;;;;;;11.59;72.00;100234.16;6252492;28;20056;-77
2024/03/09 13:10:57;;;;;;;21.05;9.07;;;;;;;11.78;72.47;100231.16;6252291;28;20144;-79
2024/03/09 13:13:59;;;;;;;15.88;8.38;;;;;;;11.83;71.58;100227.28;6252369;28;20054;-79
2024/03/09 13:17:00;;;;;;;19.35;9.45;;;;;;;11.75;72.27;100221.66;6252423;28;20442;-79
2024/03/09 13:20:12;;;;;;;22.35;9.82;;;;;;;11.79;72.20;100217.03;6251970;28;20053;-78
2024/03/09 13:23:13;;;;;;;20.23;9.88;;;;;;;12.00;72.16;100207.72;6268969;28;20437;-79
2024/03/09 13:26:14;;;;;;;18.00;8.90;;;;;;;12.10;68.97;100200.03;6276489;28;20049;-79
2024/03/09 13:29:16;;;;;;;21.30;9.98;;;;;;;12.10;70.85;100203.50;6275955;28;20049;-79
2024/03/09 13:32:18;;;;;;;21.08;9.43;;;;;;;12.13;70.90;100203.31;6276852;28;20048;-77
2024/03/09 13:35:21;;;;;;;21.48;9.73;;;;;;;12.21;70.17;100201.94;6276623;28;20131;-79
2024/03/09 13:38:26;;;;;;;25.30;11.55;;;;;;;12.14;71.16;100205.00;6276682;28;20077;-78
2024/03/09 13:41:27;;;;;;;20.30;9.93;;;;;;;12.21;70.34;100205.41;6275953;28;20048;-79
2024/03/09 13:44:29;;;;;;;18.58;9.40;;;;;;;12.34;67.08;100198.34;6276123;28;20395;-77
2024/03/09 13:47:31;;;;;;;21.70;9.70;;;;;;;12.16;70.28;100194.34;6276283;28;20076;-77
2024/03/09 13:50:34;;;;;;;19.35;9.52;;;;;;;12.15;70.03;100182.13;6276198;28;20055;-77